sensor_id;sensor_type;location;lat;lon;timestamp;pressure;altitude;pressure_sealevel;temperature;humidity
47330;BME280;33060;50.178;7.570;2022-07-29T00:02:14;96911.13;;;19.44;43.17
47330;BME280;33060;50.178;7.570;2022-07-29T00:04:40;96916.00;;;19.41;43.48
47330;BME280;33060;50.178;7.570;2022-07-29T00:07:07;96918.84;;;19.39;43.38
47330;BME280;33060;50.178;7.570;2022-07-29T00:09:35;96914.97;;;19.34;43.71
47330;BME280;33060;50.178;7.570;2022-07-29T00:12:19;96913.47;;;19.31;43.59
47330;BME280;33060;50.178;7.570;2022-07-29T00:14:56;96921.50;;;19.31;43.49
47330;BME280;33060;50.178;7.570;2022-07-29T00:17:23;96917.31;;;19.29;43.63
47330;BME280;33060;50.178;7.570;2022-07-29T00:19:50;96927.50;;;19.25;43.65
47330;BME280;33060;50.178;7.570;2022-07-29T00:22:18;96920.66;;;19.23;43.85
47330;BME280;33060;50.178;7.570;2022-07-29T00:24:44;96913.09;;;19.18;43.82
47330;BME280;33060;50.178;7.570;2022-07-29T00:27:11;96913.94;;;19.18;43.86
47330;BME280;33060;50.178;7.570;2022-07-29T00:29:38;96903.75;;;19.14;44.02
47330;BME280;33060;50.178;7.570;2022-07-29T00:32:05;96920.63;;;19.14;43.73
47330;BME280;33060;50.178;7.570;2022-07-29T00:34:31;96914.44;;;19.06;44.00
47330;BME280;33060;50.178;7.570;2022-07-29T00:37:17;96913.41;;;18.99;44.35
47330;BME280;33060;50.178;7.570;2022-07-29T00:39:43;96911.06;;;18.96;44.47
47330;BME280;33060;50.178;7.570;2022-07-29T00:42:10;96910.88;;;18.89;44.76
47330;BME280;33060;50.178;7.570;2022-07-29T00:44:41;96903.66;;;18.81;45.09
47330;BME280;33060;50.178;7.570;2022-07-29T00:47:09;96902.81;;;18.73;45.27
47330;BME280;33060;50.178;7.570;2022-07-29T00:49:36;96912.28;;;18.67;45.44
47330;BME280;33060;50.178;7.570;2022-07-29T00:52:05;96908.25;;;18.63;45.53
47330;BME280;33060;50.178;7.570;2022-07-29T00:54:33;96904.53;;;18.56;45.84
47330;BME280;33060;50.178;7.570;2022-07-29T00:57:07;96909.38;;;18.52;45.69
47330;BME280;33060;50.178;7.570;2022-07-29T00:59:36;96907.50;;;18.45;46.12
47330;BME280;33060;50.178;7.570;2022-07-29T01:02:03;96898.47;;;18.38;46.21
47330;BME280;33060;50.178;7.570;2022-07-29T01:04:30;96901.91;;;18.30;46.27
47330;BME280;33060;50.178;7.570;2022-07-29T01:06:58;96889.38;;;18.22;46.91
47330;BME280;33060;50.178;7.570;2022-07-29T01:09:27;96881.19;;;18.16;47.17
47330;BME280;33060;50.178;7.570;2022-07-29T01:12:18;96880.28;;;18.07;47.57
47330;BME280;33060;50.178;7.570;2022-07-29T01:14:48;96878.91;;;18.03;47.50
47330;BME280;33060;50.178;7.570;2022-07-29T01:17:21;96873.38;;;17.96;47.90
47330;BME280;33060;50.178;7.570;2022-07-29T01:20:06;96876.19;;;17.95;48.19
47330;BME280;33060;50.178;7.570;2022-07-29T01:25:37;96875.16;;;17.88;49.12
47330;BME280;33060;50.178;7.570;2022-07-29T01:30:56;96872.97;;;17.83;48.38
47330;BME280;33060;50.178;7.570;2022-07-29T01:33:26;96874.09;;;17.80;48.49
47330;BME280;33060;50.178;7.570;2022-07-29T01:36:18;96873.75;;;17.75;48.92
47330;BME280;33060;50.178;7.570;2022-07-29T01:38:58;96873.06;;;17.73;49.21
47330;BME280;33060;50.178;7.570;2022-07-29T01:41:31;96876.88;;;17.71;49.15
47330;BME280;33060;50.178;7.570;2022-07-29T01:44:02;96871.31;;;17.64;49.20
47330;BME280;33060;50.178;7.570;2022-07-29T01:46:35;96869.25;;;17.58;49.36
47330;BME280;33060;50.178;7.570;2022-07-29T01:49:20;96865.38;;;17.52;50.11
47330;BME280;33060;50.178;7.570;2022-07-29T01:51:51;96866.69;;;17.48;50.05
47330;BME280;33060;50.178;7.570;2022-07-29T01:54:26;96860.13;;;17.43;51.08
47330;BME280;33060;50.178;7.570;2022-07-29T01:56:56;96850.91;;;17.37;51.12
47330;BME280;33060;50.178;7.570;2022-07-29T01:59:25;96853.91;;;17.34;51.47
47330;BME280;33060;50.178;7.570;2022-07-29T02:01:54;96851.78;;;17.38;51.74
47330;BME280;33060;50.178;7.570;2022-07-29T02:04:21;96862.44;;;17.38;52.36
47330;BME280;33060;50.178;7.570;2022-07-29T02:07:00;96849.16;;;17.46;53.42
47330;BME280;33060;50.178;7.570;2022-07-29T02:09:28;96855.53;;;17.53;53.64
47330;BME280;33060;50.178;7.570;2022-07-29T02:11:57;96850.91;;;17.55;53.86
47330;BME280;33060;50.178;7.570;2022-07-29T02:14:26;96849.09;;;17.56;54.12
47330;BME280;33060;50.178;7.570;2022-07-29T02:16:55;96844.25;;;17.59;53.81
47330;BME280;33060;50.178;7.570;2022-07-29T02:19:25;96843.44;;;17.59;54.11
47330;BME280;33060;50.178;7.570;2022-07-29T02:21:54;96847.59;;;17.61;54.47
47330;BME280;33060;50.178;7.570;2022-07-29T02:24:23;96851.81;;;17.64;54.88
47330;BME280;33060;50.178;7.570;2022-07-29T02:26:52;96851.94;;;17.62;54.99
47330;BME280;33060;50.178;7.570;2022-07-29T02:29:22;96849.75;;;17.58;55.20
47330;BME280;33060;50.178;7.570;2022-07-29T02:31:50;96840.59;;;17.60;55.47
47330;BME280;33060;50.178;7.570;2022-07-29T02:34:19;96846.53;;;17.54;56.05
47330;BME280;33060;50.178;7.570;2022-07-29T02:36:48;96851.38;;;17.50;56.26
47330;BME280;33060;50.178;7.570;2022-07-29T02:39:16;96851.38;;;17.50;56.12
47330;BME280;33060;50.178;7.570;2022-07-29T02:41:46;96852.53;;;17.48;56.23
47330;BME280;33060;50.178;7.570;2022-07-29T02:44:19;96840.47;;;17.44;57.31
47330;BME280;33060;50.178;7.570;2022-07-29T02:46:50;96848.31;;;17.45;57.84
47330;BME280;33060;50.178;7.570;2022-07-29T02:52:16;96845.84;;;17.26;58.03
47330;BME280;33060;50.178;7.570;2022-07-29T02:57:27;96848.28;;;17.19;57.88
47330;BME280;33060;50.178;7.570;2022-07-29T02:59:58;96845.47;;;17.21;58.03
47330;BME280;33060;50.178;7.570;2022-07-29T03:02:25;96844.94;;;17.17;58.35
47330;BME280;33060;50.178;7.570;2022-07-29T03:04:53;96844.25;;;17.15;58.21
47330;BME280;33060;50.178;7.570;2022-07-29T03:07:23;96849.34;;;17.09;58.41
47330;BME280;33060;50.178;7.570;2022-07-29T03:09:51;96841.97;;;17.03;60.19
47330;BME280;33060;50.178;7.570;2022-07-29T03:12:19;96840.38;;;16.92;61.65
47330;BME280;33060;50.178;7.570;2022-07-29T03:14:46;96839.69;;;16.72;59.99
47330;BME280;33060;50.178;7.570;2022-07-29T03:17:13;96843.84;;;16.75;60.74
47330;BME280;33060;50.178;7.570;2022-07-29T03:19:40;96844.19;;;16.72;59.60
47330;BME280;33060;50.178;7.570;2022-07-29T03:22:07;96842.94;;;16.84;60.52
47330;BME280;33060;50.178;7.570;2022-07-29T03:24:35;96839.00;;;16.88;61.89
47330;BME280;33060;50.178;7.570;2022-07-29T03:27:03;96848.69;;;16.61;62.46
47330;BME280;33060;50.178;7.570;2022-07-29T03:29:30;96840.44;;;16.37;61.92
47330;BME280;33060;50.178;7.570;2022-07-29T03:32:01;96843.38;;;16.06;62.18
47330;BME280;33060;50.178;7.570;2022-07-29T03:34:32;96852.00;;;15.81;63.18
47330;BME280;33060;50.178;7.570;2022-07-29T03:36:59;96853.13;;;15.78;64.21
47330;BME280;33060;50.178;7.570;2022-07-29T03:39:31;96846.03;;;15.60;63.96
47330;BME280;33060;50.178;7.570;2022-07-29T03:41:59;96854.16;;;15.48;63.40
47330;BME280;33060;50.178;7.570;2022-07-29T03:44:27;96847.31;;;15.46;65.43
47330;BME280;33060;50.178;7.570;2022-07-29T03:46:55;96848.16;;;15.46;64.44
47330;BME280;33060;50.178;7.570;2022-07-29T03:49:26;96852.38;;;15.39;64.67
47330;BME280;33060;50.178;7.570;2022-07-29T03:51:53;96845.38;;;15.38;65.54
47330;BME280;33060;50.178;7.570;2022-07-29T03:54:20;96849.84;;;15.28;64.24
47330;BME280;33060;50.178;7.570;2022-07-29T03:56:48;96851.56;;;15.29;65.21
47330;BME280;33060;50.178;7.570;2022-07-29T03:59:17;96849.84;;;15.38;63.73
47330;BME280;33060;50.178;7.570;2022-07-29T04:01:46;96852.19;;;15.50;63.70
47330;BME280;33060;50.178;7.570;2022-07-29T04:04:13;96853.31;;;15.67;65.89
47330;BME280;33060;50.178;7.570;2022-07-29T04:06:42;96855.94;;;15.77;64.78
47330;BME280;33060;50.178;7.570;2022-07-29T04:09:09;96861.72;;;15.63;66.52
47330;BME280;33060;50.178;7.570;2022-07-29T04:11:38;96858.09;;;15.44;64.55
47330;BME280;33060;50.178;7.570;2022-07-29T04:14:32;96860.75;;;15.25;64.80
47330;BME280;33060;50.178;7.570;2022-07-29T04:17:00;96852.63;;;15.36;64.56
47330;BME280;33060;50.178;7.570;2022-07-29T04:19:27;96855.53;;;15.52;66.51
47330;BME280;33060;50.178;7.570;2022-07-29T04:21:54;96862.66;;;15.71;64.96
47330;BME280;33060;50.178;7.570;2022-07-29T04:24:20;96850.97;;;16.01;66.42
47330;BME280;33060;50.178;7.570;2022-07-29T04:26:47;96847.31;;;16.02;64.25
47330;BME280;33060;50.178;7.570;2022-07-29T04:29:14;96846.75;;;16.08;64.89
47330;BME280;33060;50.178;7.570;2022-07-29T04:31:42;96854.41;;;16.11;65.03
47330;BME280;33060;50.178;7.570;2022-07-29T04:34:09;96836.00;;;16.28;64.90
47330;BME280;33060;50.178;7.570;2022-07-29T04:36:36;96845.16;;;16.43;63.92
47330;BME280;33060;50.178;7.570;2022-07-29T04:39:03;96845.69;;;16.47;64.46
47330;BME280;33060;50.178;7.570;2022-07-29T04:41:30;96853.84;;;16.45;64.25
47330;BME280;33060;50.178;7.570;2022-07-29T04:43:59;96848.06;;;16.50;63.02
47330;BME280;33060;50.178;7.570;2022-07-29T04:46:37;96846.78;;;16.54;63.86
47330;BME280;33060;50.178;7.570;2022-07-29T04:49:04;96844.50;;;16.59;63.73
47330;BME280;33060;50.178;7.570;2022-07-29T04:51:31;96848.59;;;16.81;63.43
47330;BME280;33060;50.178;7.570;2022-07-29T04:53:58;96846.09;;;17.15;63.82
47330;BME280;33060;50.178;7.570;2022-07-29T04:56:24;96845.31;;;17.22;62.37
47330;BME280;33060;50.178;7.570;2022-07-29T04:58:51;96845.13;;;17.42;62.30
47330;BME280;33060;50.178;7.570;2022-07-29T05:01:18;96839.31;;;17.64;61.09
47330;BME280;33060;50.178;7.570;2022-07-29T05:03:45;96847.13;;;17.84;61.48
47330;BME280;33060;50.178;7.570;2022-07-29T05:06:12;96852.50;;;17.92;60.26
47330;BME280;33060;50.178;7.570;2022-07-29T05:08:38;96847.22;;;18.00;60.68
47330;BME280;33060;50.178;7.570;2022-07-29T05:11:07;96847.41;;;18.06;59.31
47330;BME280;33060;50.178;7.570;2022-07-29T05:13:38;96858.69;;;18.26;59.86
47330;BME280;33060;50.178;7.570;2022-07-29T05:16:12;96860.78;;;18.49;59.76
47330;BME280;33060;50.178;7.570;2022-07-29T05:18:39;96863.31;;;18.58;59.01
47330;BME280;33060;50.178;7.570;2022-07-29T05:21:06;96871.56;;;18.73;58.77
47330;BME280;33060;50.178;7.570;2022-07-29T05:23:33;96877.56;;;18.67;59.20
47330;BME280;33060;50.178;7.570;2022-07-29T05:25:59;96877.19;;;18.62;59.15
47330;BME280;33060;50.178;7.570;2022-07-29T05:28:26;96872.22;;;18.67;59.26
47330;BME280;33060;50.178;7.570;2022-07-29T05:30:52;96877.44;;;18.77;58.86
47330;BME280;33060;50.178;7.570;2022-07-29T05:33:19;96881.13;;;18.84;59.07
47330;BME280;33060;50.178;7.570;2022-07-29T05:36:03;96884.16;;;18.89;58.30
47330;BME280;33060;50.178;7.570;2022-07-29T05:38:32;96879.63;;;18.89;57.66
47330;BME280;33060;50.178;7.570;2022-07-29T05:40:59;96883.97;;;18.90;57.11
47330;BME280;33060;50.178;7.570;2022-07-29T05:43:27;96878.00;;;18.97;56.91
47330;BME280;33060;50.178;7.570;2022-07-29T05:45:54;96882.84;;;19.17;56.86
47330;BME280;33060;50.178;7.570;2022-07-29T05:48:21;96883.53;;;19.03;58.94
47330;BME280;33060;50.178;7.570;2022-07-29T05:50:48;96891.53;;;19.03;58.91
47330;BME280;33060;50.178;7.570;2022-07-29T05:53:15;96888.19;;;19.09;58.52
47330;BME280;33060;50.178;7.570;2022-07-29T05:55:45;96891.69;;;19.10;56.95
47330;BME280;33060;50.178;7.570;2022-07-29T05:58:12;96891.41;;;19.21;57.92
47330;BME280;33060;50.178;7.570;2022-07-29T06:00:38;96897.25;;;19.33;56.89
47330;BME280;33060;50.178;7.570;2022-07-29T06:03:06;96892.91;;;19.32;57.06
47330;BME280;33060;50.178;7.570;2022-07-29T06:05:33;96894.56;;;19.25;57.42
47330;BME280;33060;50.178;7.570;2022-07-29T06:07:59;96899.91;;;19.16;57.87
47330;BME280;33060;50.178;7.570;2022-07-29T06:10:26;96899.06;;;19.08;58.03
47330;BME280;33060;50.178;7.570;2022-07-29T06:12:53;96913.75;;;18.96;58.51
47330;BME280;33060;50.178;7.570;2022-07-29T06:15:20;96912.06;;;18.95;58.69
47330;BME280;33060;50.178;7.570;2022-07-29T06:17:46;96916.41;;;18.96;58.39
47330;BME280;33060;50.178;7.570;2022-07-29T06:20:30;96917.69;;;18.83;57.29
47330;BME280;33060;50.178;7.570;2022-07-29T06:22:58;96922.34;;;18.73;57.35
47330;BME280;33060;50.178;7.570;2022-07-29T06:25:26;96919.09;;;18.61;57.05
47330;BME280;33060;50.178;7.570;2022-07-29T06:27:52;96926.28;;;18.61;57.13
47330;BME280;33060;50.178;7.570;2022-07-29T06:30:19;96923.25;;;18.56;56.94
47330;BME280;33060;50.178;7.570;2022-07-29T06:32:46;96923.56;;;18.53;56.96
47330;BME280;33060;50.178;7.570;2022-07-29T06:35:13;96923.25;;;18.56;57.21
47330;BME280;33060;50.178;7.570;2022-07-29T06:38:00;96931.63;;;18.61;57.08
47330;BME280;33060;50.178;7.570;2022-07-29T06:40:27;96936.03;;;18.70;57.20
47330;BME280;33060;50.178;7.570;2022-07-29T06:43:13;96938.53;;;18.72;57.84
47330;BME280;33060;50.178;7.570;2022-07-29T06:45:39;96935.50;;;18.67;57.69
47330;BME280;33060;50.178;7.570;2022-07-29T06:48:09;96935.19;;;18.70;57.75
47330;BME280;33060;50.178;7.570;2022-07-29T06:50:36;96943.25;;;18.78;57.51
47330;BME280;33060;50.178;7.570;2022-07-29T06:53:03;96944.38;;;18.75;57.53
47330;BME280;33060;50.178;7.570;2022-07-29T06:55:29;96945.75;;;18.79;57.66
47330;BME280;33060;50.178;7.570;2022-07-29T06:57:56;96946.09;;;18.84;57.67
47330;BME280;33060;50.178;7.570;2022-07-29T07:00:23;96951.84;;;18.98;57.53
47330;BME280;33060;50.178;7.570;2022-07-29T07:02:49;96952.50;;;19.00;57.75
47330;BME280;33060;50.178;7.570;2022-07-29T07:05:22;96952.19;;;19.03;57.55
47330;BME280;33060;50.178;7.570;2022-07-29T07:07:49;96952.09;;;19.29;56.97
47330;BME280;33060;50.178;7.570;2022-07-29T07:10:16;96957.66;;;19.60;56.46
47330;BME280;33060;50.178;7.570;2022-07-29T07:12:42;96961.00;;;20.11;55.31
47330;BME280;33060;50.178;7.570;2022-07-29T07:15:09;96963.00;;;21.28;52.75
47330;BME280;33060;50.178;7.570;2022-07-29T07:17:37;96958.19;;;21.15;51.72
47330;BME280;33060;50.178;7.570;2022-07-29T07:20:05;96951.16;;;22.28;49.16
47330;BME280;33060;50.178;7.570;2022-07-29T07:22:32;96956.66;;;22.79;48.67
47330;BME280;33060;50.178;7.570;2022-07-29T07:25:04;96952.78;;;22.97;47.51
47330;BME280;33060;50.178;7.570;2022-07-29T07:27:31;96959.91;;;22.75;46.80
47330;BME280;33060;50.178;7.570;2022-07-29T07:29:57;96956.75;;;22.71;47.43
47330;BME280;33060;50.178;7.570;2022-07-29T07:32:24;96947.28;;;23.05;45.72
47330;BME280;33060;50.178;7.570;2022-07-29T07:34:51;96958.59;;;22.56;46.30
47330;BME280;33060;50.178;7.570;2022-07-29T07:37:18;96958.84;;;22.32;46.02
47330;BME280;33060;50.178;7.570;2022-07-29T07:39:46;96962.38;;;22.17;46.82
47330;BME280;33060;50.178;7.570;2022-07-29T07:42:13;96966.19;;;22.38;46.12
47330;BME280;33060;50.178;7.570;2022-07-29T07:44:40;96956.41;;;23.04;45.41
47330;BME280;33060;50.178;7.570;2022-07-29T07:47:26;96961.25;;;23.30;44.32
47330;BME280;33060;50.178;7.570;2022-07-29T07:49:54;96954.78;;;23.09;44.83
47330;BME280;33060;50.178;7.570;2022-07-29T07:52:21;96964.28;;;22.91;45.62
47330;BME280;33060;50.178;7.570;2022-07-29T07:54:48;96959.63;;;23.14;43.61
47330;BME280;33060;50.178;7.570;2022-07-29T07:57:15;96966.00;;;22.83;45.27
47330;BME280;33060;50.178;7.570;2022-07-29T07:59:42;96957.19;;;22.16;46.32
47330;BME280;33060;50.178;7.570;2022-07-29T08:02:09;96966.66;;;22.04;47.10
47330;BME280;33060;50.178;7.570;2022-07-29T08:04:36;96974.44;;;21.98;47.21
47330;BME280;33060;50.178;7.570;2022-07-29T08:07:02;96970.78;;;21.91;47.00
47330;BME280;33060;50.178;7.570;2022-07-29T08:09:29;96972.53;;;22.07;46.42
47330;BME280;33060;50.178;7.570;2022-07-29T08:11:57;96967.03;;;22.38;45.59
47330;BME280;33060;50.178;7.570;2022-07-29T08:14:24;96965.75;;;22.64;45.17
47330;BME280;33060;50.178;7.570;2022-07-29T08:16:51;96966.78;;;22.77;45.41
47330;BME280;33060;50.178;7.570;2022-07-29T08:19:18;96963.88;;;23.08;43.94
47330;BME280;33060;50.178;7.570;2022-07-29T08:21:45;96957.47;;;23.60;41.90
47330;BME280;33060;50.178;7.570;2022-07-29T08:24:11;96966.31;;;23.97;41.06
47330;BME280;33060;50.178;7.570;2022-07-29T08:26:57;96961.56;;;23.99;41.22
47330;BME280;33060;50.178;7.570;2022-07-29T08:29:24;96963.53;;;23.48;42.07
47330;BME280;33060;50.178;7.570;2022-07-29T08:31:50;96960.81;;;23.84;42.33
47330;BME280;33060;50.178;7.570;2022-07-29T08:34:17;96962.22;;;23.44;43.01
47330;BME280;33060;50.178;7.570;2022-07-29T08:36:53;96962.94;;;23.67;41.44
47330;BME280;33060;50.178;7.570;2022-07-29T08:39:19;96961.53;;;23.56;42.50
47330;BME280;33060;50.178;7.570;2022-07-29T08:41:46;96960.91;;;24.18;42.02
47330;BME280;33060;50.178;7.570;2022-07-29T08:44:23;96953.41;;;25.04;41.05
47330;BME280;33060;50.178;7.570;2022-07-29T08:46:56;96954.69;;;25.15;39.70
47330;BME280;33060;50.178;7.570;2022-07-29T08:49:23;96953.50;;;24.90;40.25
47330;BME280;33060;50.178;7.570;2022-07-29T08:51:51;96947.84;;;25.19;40.02
47330;BME280;33060;50.178;7.570;2022-07-29T08:54:21;96939.38;;;25.29;39.67
47330;BME280;33060;50.178;7.570;2022-07-29T08:56:49;96942.38;;;25.67;39.04
47330;BME280;33060;50.178;7.570;2022-07-29T08:59:19;96943.13;;;25.34;39.03
47330;BME280;33060;50.178;7.570;2022-07-29T09:01:48;96943.75;;;25.30;38.32
47330;BME280;33060;50.178;7.570;2022-07-29T09:04:20;96931.16;;;25.63;38.88
47330;BME280;33060;50.178;7.570;2022-07-29T09:06:49;96937.66;;;25.82;38.94
47330;BME280;33060;50.178;7.570;2022-07-29T09:09:17;96933.31;;;26.01;38.89
47330;BME280;33060;50.178;7.570;2022-07-29T09:11:44;96937.66;;;26.29;38.30
47330;BME280;33060;50.178;7.570;2022-07-29T09:14:12;96935.56;;;26.57;38.69
47330;BME280;33060;50.178;7.570;2022-07-29T09:16:54;96935.25;;;26.92;38.28
47330;BME280;33060;50.178;7.570;2022-07-29T09:19:35;96940.56;;;26.34;37.80
47330;BME280;33060;50.178;7.570;2022-07-29T09:22:04;96936.81;;;26.35;37.59
47330;BME280;33060;50.178;7.570;2022-07-29T09:27:01;96934.22;;;26.93;37.76
47330;BME280;33060;50.178;7.570;2022-07-29T09:29:28;96929.19;;;27.10;36.89
47330;BME280;33060;50.178;7.570;2022-07-29T09:32:06;96932.16;;;26.82;36.20
47330;BME280;33060;50.178;7.570;2022-07-29T09:34:34;96928.88;;;26.73;36.84
47330;BME280;33060;50.178;7.570;2022-07-29T09:37:02;96934.34;;;26.46;36.64
47330;BME280;33060;50.178;7.570;2022-07-29T09:39:39;96927.69;;;27.20;36.13
47330;BME280;33060;50.178;7.570;2022-07-29T09:42:12;96931.59;;;27.63;35.75
47330;BME280;33060;50.178;7.570;2022-07-29T09:44:46;96936.47;;;27.92;33.89
47330;BME280;33060;50.178;7.570;2022-07-29T09:47:16;96936.06;;;27.88;34.71
47330;BME280;33060;50.178;7.570;2022-07-29T09:52:29;96930.19;;;26.44;37.14
47330;BME280;33060;50.178;7.570;2022-07-29T09:55:06;96926.69;;;27.08;36.11
47330;BME280;33060;50.178;7.570;2022-07-29T09:57:33;96929.81;;;27.12;35.88
47330;BME280;33060;50.178;7.570;2022-07-29T10:02:38;96924.03;;;27.46;35.78
47330;BME280;33060;50.178;7.570;2022-07-29T10:05:15;96925.88;;;27.84;34.89
47330;BME280;33060;50.178;7.570;2022-07-29T10:07:53;96922.50;;;27.88;35.36
47330;BME280;33060;50.178;7.570;2022-07-29T10:10:34;96916.91;;;27.83;34.65
47330;BME280;33060;50.178;7.570;2022-07-29T10:13:12;96915.41;;;27.87;36.28
47330;BME280;33060;50.178;7.570;2022-07-29T10:15:43;96916.22;;;27.63;36.27
47330;BME280;33060;50.178;7.570;2022-07-29T10:18:12;96919.19;;;27.55;35.01
47330;BME280;33060;50.178;7.570;2022-07-29T10:20:39;96920.44;;;28.15;35.27
47330;BME280;33060;50.178;7.570;2022-07-29T10:23:06;96917.75;;;28.09;34.50
47330;BME280;33060;50.178;7.570;2022-07-29T10:25:33;96920.53;;;27.32;34.41
47330;BME280;33060;50.178;7.570;2022-07-29T10:28:00;96920.31;;;27.34;34.94
47330;BME280;33060;50.178;7.570;2022-07-29T10:30:27;96909.78;;;27.57;34.96
47330;BME280;33060;50.178;7.570;2022-07-29T10:38:55;96908.91;;;28.20;32.20
47330;BME280;33060;50.178;7.570;2022-07-29T10:44:18;96912.50;;;27.89;34.18
47330;BME280;33060;50.178;7.570;2022-07-29T10:46:49;96909.84;;;27.82;34.17
47330;BME280;33060;50.178;7.570;2022-07-29T10:49:18;96906.09;;;28.33;32.93
47330;BME280;33060;50.178;7.570;2022-07-29T10:52:08;96896.97;;;28.89;32.84
47330;BME280;33060;50.178;7.570;2022-07-29T10:54:43;96902.75;;;28.31;33.52
47330;BME280;33060;50.178;7.570;2022-07-29T11:00:27;96912.41;;;27.32;34.69
47330;BME280;33060;50.178;7.570;2022-07-29T11:02:55;96911.69;;;26.99;35.79
47330;BME280;33060;50.178;7.570;2022-07-29T11:05:24;96911.81;;;26.66;36.30
47330;BME280;33060;50.178;7.570;2022-07-29T11:10:50;96916.84;;;26.23;37.21
47330;BME280;33060;50.178;7.570;2022-07-29T11:16:09;96915.41;;;26.20;37.24
47330;BME280;33060;50.178;7.570;2022-07-29T11:21:41;96924.34;;;26.20;37.13
47330;BME280;33060;50.178;7.570;2022-07-29T11:24:29;96918.53;;;26.10;37.16
47330;BME280;33060;50.178;7.570;2022-07-29T11:29:56;96911.03;;;25.79;37.40
47330;BME280;33060;50.178;7.570;2022-07-29T11:32:38;96909.78;;;25.88;37.30
47330;BME280;33060;50.178;7.570;2022-07-29T11:35:19;96909.78;;;25.95;36.68
47330;BME280;33060;50.178;7.570;2022-07-29T11:41:23;96903.91;;;27.60;35.67
47330;BME280;33060;50.178;7.570;2022-07-29T11:43:58;96906.63;;;28.17;33.77
47330;BME280;33060;50.178;7.570;2022-07-29T11:49:10;96910.00;;;27.87;34.98
47330;BME280;33060;50.178;7.570;2022-07-29T11:51:41;96905.00;;;27.53;35.64
47330;BME280;33060;50.178;7.570;2022-07-29T11:54:15;96905.78;;;27.67;35.07
47330;BME280;33060;50.178;7.570;2022-07-29T11:56:53;96906.91;;;27.84;34.00
47330;BME280;33060;50.178;7.570;2022-07-29T11:59:21;96909.94;;;27.94;33.89
47330;BME280;33060;50.178;7.570;2022-07-29T12:01:59;96912.47;;;28.64;33.77
47330;BME280;33060;50.178;7.570;2022-07-29T12:07:47;96895.31;;;29.55;32.50
47330;BME280;33060;50.178;7.570;2022-07-29T12:10:15;96884.31;;;29.62;32.68
47330;BME280;33060;50.178;7.570;2022-07-29T12:12:51;96903.91;;;29.04;32.00
47330;BME280;33060;50.178;7.570;2022-07-29T12:15:18;96906.84;;;28.40;33.02
47330;BME280;33060;50.178;7.570;2022-07-29T12:17:47;96904.28;;;27.32;33.60
47330;BME280;33060;50.178;7.570;2022-07-29T12:20:22;96902.31;;;27.08;35.26
47330;BME280;33060;50.178;7.570;2022-07-29T12:22:50;96902.84;;;27.61;34.98
47330;BME280;33060;50.178;7.570;2022-07-29T12:25:17;96898.41;;;28.30;33.87
47330;BME280;33060;50.178;7.570;2022-07-29T12:28:02;96898.13;;;28.75;32.88
47330;BME280;33060;50.178;7.570;2022-07-29T12:30:47;96899.34;;;28.79;31.86
47330;BME280;33060;50.178;7.570;2022-07-29T12:33:28;96897.69;;;28.16;33.53
47330;BME280;33060;50.178;7.570;2022-07-29T12:36:00;96901.94;;;27.81;33.66
47330;BME280;33060;50.178;7.570;2022-07-29T12:38:33;96892.00;;;27.37;34.09
47330;BME280;33060;50.178;7.570;2022-07-29T12:41:01;96890.13;;;27.30;34.67
47330;BME280;33060;50.178;7.570;2022-07-29T12:43:30;96895.28;;;27.77;34.08
47330;BME280;33060;50.178;7.570;2022-07-29T12:45:57;96900.50;;;28.03;34.70
47330;BME280;33060;50.178;7.570;2022-07-29T12:51:03;96884.66;;;28.68;33.78
47330;BME280;33060;50.178;7.570;2022-07-29T12:53:30;96885.78;;;28.79;33.30
47330;BME280;33060;50.178;7.570;2022-07-29T12:55:57;96886.53;;;28.86;33.00
47330;BME280;33060;50.178;7.570;2022-07-29T12:58:41;96883.44;;;28.83;32.40
47330;BME280;33060;50.178;7.570;2022-07-29T13:01:15;96879.75;;;28.77;32.59
47330;BME280;33060;50.178;7.570;2022-07-29T13:03:44;96875.69;;;28.68;32.65
47330;BME280;33060;50.178;7.570;2022-07-29T13:09:03;96872.00;;;27.94;33.02
47330;BME280;33060;50.178;7.570;2022-07-29T13:11:34;96864.06;;;28.17;33.35
47330;BME280;33060;50.178;7.570;2022-07-29T13:14:02;96867.75;;;28.48;33.36
47330;BME280;33060;50.178;7.570;2022-07-29T13:16:32;96867.00;;;28.16;33.97
47330;BME280;33060;50.178;7.570;2022-07-29T13:19:10;96867.84;;;27.92;34.22
47330;BME280;33060;50.178;7.570;2022-07-29T13:21:38;96859.22;;;27.76;34.47
47330;BME280;33060;50.178;7.570;2022-07-29T13:24:06;96869.94;;;27.58;34.04
47330;BME280;33060;50.178;7.570;2022-07-29T13:26:33;96862.59;;;27.72;33.51
47330;BME280;33060;50.178;7.570;2022-07-29T13:29:00;96866.34;;;27.71;33.63
47330;BME280;33060;50.178;7.570;2022-07-29T13:31:27;96869.00;;;28.02;33.39
47330;BME280;33060;50.178;7.570;2022-07-29T13:33:54;96872.53;;;28.28;33.14
47330;BME280;33060;50.178;7.570;2022-07-29T13:36:20;96878.22;;;28.44;33.89
47330;BME280;33060;50.178;7.570;2022-07-29T13:38:47;96869.56;;;28.36;33.67
47330;BME280;33060;50.178;7.570;2022-07-29T13:41:14;96863.63;;;27.96;33.84
47330;BME280;33060;50.178;7.570;2022-07-29T13:43:43;96867.16;;;27.96;34.17
47330;BME280;33060;50.178;7.570;2022-07-29T13:46:10;96865.00;;;28.05;33.75
47330;BME280;33060;50.178;7.570;2022-07-29T13:48:36;96868.50;;;28.12;33.49
47330;BME280;33060;50.178;7.570;2022-07-29T13:51:03;96870.16;;;28.13;32.55
47330;BME280;33060;50.178;7.570;2022-07-29T13:53:30;96871.66;;;28.34;33.29
47330;BME280;33060;50.178;7.570;2022-07-29T13:55:57;96868.66;;;28.42;32.94
47330;BME280;33060;50.178;7.570;2022-07-29T13:58:23;96872.03;;;28.56;32.62
47330;BME280;33060;50.178;7.570;2022-07-29T14:00:50;96870.16;;;28.56;33.20
47330;BME280;33060;50.178;7.570;2022-07-29T14:03:17;96864.72;;;28.56;32.75
47330;BME280;33060;50.178;7.570;2022-07-29T14:05:44;96871.00;;;28.57;33.02
47330;BME280;33060;50.178;7.570;2022-07-29T14:08:10;96869.91;;;28.39;33.03
47330;BME280;33060;50.178;7.570;2022-07-29T14:10:37;96877.03;;;28.15;31.17
47330;BME280;33060;50.178;7.570;2022-07-29T14:13:04;96874.88;;;28.24;32.11